createdAt,value
2018-04-11T00:02:04.201Z,36.07
2018-04-11T00:04:31.655Z,33.87
2018-04-11T00:06:59.109Z,37.60
2018-04-11T00:09:26.583Z,35.43
2018-04-11T00:11:54.042Z,31.97
2018-04-11T00:14:21.490Z,30.83
2018-04-11T00:16:48.920Z,32.07
2018-04-11T00:19:17.152Z,34.63
2018-04-11T00:21:44.621Z,32.87
2018-04-11T00:24:12.083Z,33.97
2018-04-11T00:26:39.537Z,31.47
2018-04-11T00:29:07.003Z,31.73
2018-04-11T00:31:34.461Z,33.63
2018-04-11T00:34:01.926Z,38.80
2018-04-11T00:36:29.377Z,33.60
2018-04-11T00:38:56.814Z,31.00
2018-04-11T00:41:24.252Z,32.37
2018-04-11T00:43:51.754Z,30.73
2018-04-11T00:46:19.217Z,35.47
2018-04-11T00:48:46.779Z,37.53
2018-04-11T00:51:14.212Z,34.93
2018-04-11T00:53:42.452Z,34.57
2018-04-11T00:56:09.914Z,33.73
2018-04-11T00:58:37.364Z,35.30
2018-04-11T01:01:04.802Z,37.40
2018-04-11T01:03:32.285Z,35.17
2018-04-11T01:05:59.747Z,34.23
2018-04-11T01:08:27.180Z,37.70
2018-04-11T01:10:54.624Z,35.87
2018-04-11T01:13:22.870Z,36.50
2018-04-11T01:15:50.301Z,34.87
2018-04-11T01:18:17.748Z,34.53
2018-04-11T01:20:45.226Z,33.37
2018-04-11T01:23:12.682Z,38.13
2018-04-11T01:25:40.125Z,36.40
2018-04-11T01:28:08.356Z,39.90
2018-04-11T01:30:35.844Z,38.80
2018-04-11T01:33:03.288Z,36.87
2018-04-11T01:35:30.736Z,36.13
2018-04-11T01:37:58.200Z,37.33
2018-04-11T01:40:25.667Z,35.17
2018-04-11T01:42:53.131Z,36.93
2018-04-11T01:45:20.592Z,37.90
2018-04-11T01:47:48.073Z,36.77
2018-04-11T01:50:15.533Z,37.87
2018-04-11T01:52:42.980Z,38.40
2018-04-11T01:55:10.434Z,39.30
2018-04-11T01:57:37.901Z,39.03
2018-04-11T02:00:05.350Z,37.43
2018-04-11T02:02:32.809Z,38.43
2018-04-11T02:05:00.280Z,39.57
2018-04-11T02:07:27.717Z,39.20
2018-04-11T02:09:55.198Z,37.37
2018-04-11T02:12:22.761Z,42.63
2018-04-11T02:14:50.957Z,33.07
2018-04-11T02:17:18.405Z,41.23
2018-04-11T02:19:45.839Z,40.37
2018-04-11T02:22:14.065Z,38.03
2018-04-11T02:24:41.501Z,37.10
2018-04-11T02:27:08.936Z,37.87
2018-04-11T02:29:37.150Z,37.13
2018-04-11T02:32:04.630Z,37.60
2018-04-11T02:34:32.090Z,39.87
2018-04-11T02:37:00.755Z,41.73
2018-04-11T02:39:28.965Z,39.07
2018-04-11T02:41:56.419Z,42.97
2018-04-11T02:44:23.853Z,40.77
2018-04-11T02:46:52.066Z,42.17
2018-04-11T02:49:19.525Z,38.60
2018-04-11T02:51:46.991Z,39.13
2018-04-11T02:54:14.457Z,40.27
2018-04-11T02:56:41.937Z,38.13
2018-04-11T02:59:09.379Z,39.23
2018-04-11T03:01:36.833Z,41.97
2018-04-11T03:04:04.289Z,37.47
2018-04-11T03:06:31.745Z,39.07
2018-04-11T03:08:59.193Z,33.33
2018-04-11T03:11:27.419Z,39.17
2018-04-11T03:13:54.878Z,46.33
2018-04-11T03:16:23.098Z,39.27
2018-04-11T03:18:50.555Z,40.87
2018-04-11T03:21:18.006Z,37.23
2018-04-11T03:23:45.457Z,37.97
2018-04-11T03:26:12.909Z,39.27
2018-04-11T03:28:40.345Z,44.00
2018-04-11T03:31:07.811Z,41.97
2018-04-11T03:33:35.267Z,37.03
2018-04-11T03:36:02.721Z,44.20
2018-04-11T03:38:30.165Z,38.93
2018-04-11T03:40:58.389Z,39.43
2018-04-11T03:43:25.818Z,38.27
2018-04-11T03:45:54.034Z,34.73
2018-04-11T03:48:21.481Z,34.33
2018-04-11T03:50:48.923Z,30.20
2018-04-11T03:53:17.142Z,31.47
2018-04-11T03:55:44.614Z,30.60
2018-04-11T03:58:12.047Z,37.67
2018-04-11T04:00:39.516Z,30.40
2018-04-11T04:03:06.973Z,32.33
2018-04-11T04:05:34.418Z,33.63
2018-04-11T04:08:02.646Z,33.77
2018-04-11T04:10:30.101Z,32.20
2018-04-11T04:12:57.573Z,33.10
2018-04-11T04:15:36.877Z,31.37
2018-04-11T04:18:16.187Z,32.57
2018-04-11T04:20:44.401Z,33.60
2018-04-11T04:23:12.061Z,32.97
2018-04-11T04:25:39.519Z,33.90
2018-04-11T04:28:07.004Z,33.13
2018-04-11T04:30:34.445Z,34.00
2018-04-11T04:33:01.939Z,30.07
2018-04-11T04:35:29.393Z,33.23
2018-04-11T04:37:56.840Z,32.87
2018-04-11T04:40:24.297Z,32.40
2018-04-11T04:42:51.760Z,35.13
2018-04-11T04:45:19.214Z,30.23
2018-04-11T04:47:46.656Z,35.47
2018-04-11T04:50:14.905Z,36.53
2018-04-11T04:52:42.359Z,34.40
2018-04-11T04:55:10.577Z,39.83
2018-04-11T04:57:38.792Z,34.17
2018-04-11T05:00:06.255Z,31.50
2018-04-11T05:02:33.684Z,37.63
2018-04-11T05:05:01.939Z,42.63
2018-04-11T05:07:29.380Z,38.40
2018-04-11T05:09:56.845Z,39.00
2018-04-11T05:12:25.066Z,35.63
2018-04-11T05:14:53.293Z,37.97
2018-04-11T05:17:20.843Z,36.00
2018-04-11T05:19:48.327Z,38.87
2018-04-11T05:22:15.768Z,39.80
2018-04-11T05:24:43.217Z,41.03
2018-04-11T05:27:10.706Z,42.80
2018-04-11T05:29:38.879Z,41.03
2018-04-11T05:32:06.330Z,38.47
2018-04-11T05:34:35.462Z,39.30
2018-04-11T05:37:02.902Z,39.57
2018-04-11T05:39:30.344Z,42.10
2018-04-11T05:41:57.788Z,41.13
2018-04-11T05:44:28.539Z,43.30
2018-04-11T05:46:55.993Z,41.00
2018-04-11T05:49:24.200Z,44.67
2018-04-11T05:51:51.668Z,43.17
2018-04-11T05:54:19.096Z,44.73
2018-04-11T05:56:47.321Z,36.40
2018-04-11T05:59:14.798Z,47.87
2018-04-11T06:01:42.251Z,37.97
2018-04-11T06:04:12.466Z,42.93
2018-04-11T06:06:40.157Z,42.70
2018-04-11T06:09:07.612Z,40.33
2018-04-11T06:11:35.052Z,39.07
2018-04-11T06:14:02.509Z,43.97
2018-04-11T06:16:29.957Z,42.07
2018-04-11T06:18:58.225Z,47.55
2018-04-11T06:21:26.432Z,42.13
2018-04-11T06:23:53.872Z,42.93
2018-04-11T06:26:22.104Z,41.43
2018-04-11T06:28:49.536Z,41.23
2018-04-11T06:31:17.002Z,46.77
2018-04-11T06:33:44.493Z,45.70
2018-04-11T06:36:11.914Z,49.07
2018-04-11T06:38:39.355Z,45.57
2018-04-11T06:41:07.595Z,44.07
2018-04-11T06:43:35.041Z,44.40
2018-04-11T06:46:02.497Z,42.67
2018-04-11T06:48:29.955Z,43.50
2018-04-11T06:50:57.380Z,41.57
2018-04-11T06:53:25.630Z,42.33
2018-04-11T06:55:53.116Z,43.80
2018-04-11T06:58:20.591Z,42.07
2018-04-11T07:00:48.030Z,41.20
2018-04-11T07:03:15.472Z,42.60
2018-04-11T07:05:42.921Z,42.97
2018-04-11T07:08:10.390Z,43.23
2018-04-11T07:10:37.832Z,42.27
2018-04-11T07:13:05.281Z,38.20
2018-04-11T07:15:32.755Z,41.53
2018-04-11T07:18:00.205Z,38.83
2018-04-11T07:20:27.670Z,40.97
2018-04-11T07:22:55.123Z,41.37
2018-04-11T07:25:23.328Z,41.97
2018-04-11T07:27:50.777Z,41.63
2018-04-11T07:30:18.220Z,42.53
2018-04-11T07:32:46.441Z,40.20
2018-04-11T07:35:13.886Z,40.37
2018-04-11T07:37:41.359Z,41.20
2018-04-11T07:40:08.815Z,39.83
2018-04-11T07:42:36.995Z,36.63
2018-04-11T07:45:04.473Z,39.77
2018-04-11T07:47:31.918Z,39.47
2018-04-11T07:49:59.798Z,40.37
2018-04-11T07:52:27.247Z,43.10
2018-04-11T07:54:54.706Z,41.57
2018-04-11T07:57:22.926Z,39.97
2018-04-11T07:59:50.382Z,41.00
2018-04-11T08:02:17.824Z,38.87
2018-04-11T08:04:45.296Z,42.57
2018-04-11T08:07:12.738Z,39.30
2018-04-11T08:09:40.184Z,39.23
2018-04-11T08:12:08.460Z,40.43
2018-04-11T08:14:36.679Z,39.57
2018-04-11T08:17:04.137Z,39.47
2018-04-11T08:19:31.592Z,40.70
2018-04-11T08:21:59.036Z,42.43
2018-04-11T08:24:27.244Z,42.67
2018-04-11T08:26:54.705Z,36.10
2018-04-11T08:29:22.186Z,45.60
2018-04-11T08:31:49.662Z,42.87
2018-04-11T08:34:17.132Z,41.60
2018-04-11T08:36:44.576Z,42.47
2018-04-11T08:39:12.037Z,40.83
2018-04-11T08:41:39.503Z,39.03
2018-04-11T08:44:06.944Z,38.60
2018-04-11T08:46:34.407Z,37.97
2018-04-11T08:49:01.860Z,36.47
2018-04-11T08:51:29.300Z,40.53
2018-04-11T08:53:58.345Z,38.40
2018-04-11T08:56:25.796Z,41.97
2018-04-11T08:58:53.236Z,41.77
2018-04-11T09:01:21.455Z,43.47
2018-04-11T09:03:48.904Z,41.53
2018-04-11T09:06:16.349Z,39.60
2018-04-11T09:08:43.865Z,38.90
2018-04-11T09:11:11.301Z,36.37
2018-04-11T09:13:38.750Z,40.47
2018-04-11T09:16:06.237Z,39.07
2018-04-11T09:18:33.688Z,42.67
2018-04-11T09:21:01.157Z,41.40
2018-04-11T09:23:28.594Z,43.03
2018-04-11T09:25:56.065Z,44.13
2018-04-11T09:28:23.509Z,48.93
2018-04-11T09:30:50.967Z,41.37
2018-04-11T09:33:19.193Z,51.47
2018-04-11T09:35:46.634Z,53.00
2018-04-11T09:38:14.083Z,52.33
2018-04-11T09:40:41.521Z,47.93
2018-04-11T09:43:09.726Z,43.97
2018-04-11T09:45:37.164Z,43.93
2018-04-11T09:48:05.380Z,39.80
2018-04-11T09:50:32.850Z,38.67
2018-04-11T09:53:00.295Z,40.47
2018-04-11T09:55:27.768Z,41.53
2018-04-11T09:57:55.217Z,36.50
2018-04-11T10:00:22.697Z,39.10
2018-04-11T10:02:56.640Z,38.47
2018-04-11T10:05:24.100Z,41.83
2018-04-11T10:07:51.549Z,42.77
2018-04-11T10:10:18.988Z,39.60
2018-04-11T10:12:46.440Z,38.03
2018-04-11T10:15:13.890Z,38.33
2018-04-11T10:17:42.099Z,36.47
2018-04-11T10:20:09.570Z,38.57
2018-04-11T10:22:37.045Z,37.87
2018-04-11T10:25:04.489Z,35.70
2018-04-11T10:27:31.938Z,35.87
2018-04-11T10:29:59.384Z,37.07
2018-04-11T10:32:27.606Z,35.17
2018-04-11T10:34:55.038Z,42.03
2018-04-11T10:37:22.483Z,37.03
2018-04-11T10:39:50.705Z,40.77
2018-04-11T10:42:18.153Z,37.37
2018-04-11T10:44:45.592Z,40.33
2018-04-11T10:47:13.821Z,33.97
2018-04-11T10:49:42.050Z,34.63
2018-04-11T10:52:10.260Z,32.60
2018-04-11T10:54:37.719Z,35.80
2018-04-11T10:57:05.174Z,28.87
2018-04-11T10:59:32.617Z,33.13
2018-04-11T11:02:00.838Z,32.83
2018-04-11T11:04:28.279Z,32.10
2018-04-11T11:06:55.734Z,36.20
2018-04-11T11:09:23.180Z,40.63
2018-04-11T11:11:51.413Z,35.23
2018-04-11T11:14:18.860Z,35.50
2018-04-11T11:16:47.303Z,32.50
2018-04-11T11:19:15.516Z,31.93
2018-04-11T11:21:42.957Z,34.53
2018-04-11T11:24:11.168Z,34.83
2018-04-11T11:26:38.617Z,30.40
2018-04-11T11:29:06.062Z,33.30
2018-04-11T11:31:34.272Z,33.23
2018-04-11T11:34:01.746Z,33.03
2018-04-11T11:36:29.189Z,30.47
2018-04-11T11:38:56.641Z,31.50
2018-04-11T11:41:24.108Z,36.83
2018-04-11T11:43:51.545Z,31.57
2018-04-11T11:46:19.769Z,31.67
2018-04-11T11:48:47.238Z,36.13
2018-04-11T11:51:14.680Z,30.93
2018-04-11T11:53:42.147Z,31.33
2018-04-11T11:56:09.597Z,35.67
2018-04-11T11:58:37.050Z,30.00
2018-04-11T12:01:05.275Z,29.07
2018-04-11T12:03:32.713Z,33.30
2018-04-11T12:06:00.174Z,32.20
2018-04-11T12:08:27.623Z,30.23
2018-04-11T12:10:55.118Z,28.37
2018-04-11T12:13:22.626Z,30.50
2018-04-11T12:15:50.094Z,30.17
2018-04-11T12:18:17.538Z,31.53
2018-04-11T12:20:45.000Z,29.77
2018-04-11T12:23:12.870Z,31.60
2018-04-11T12:28:15.752Z,30.60
2018-04-11T12:30:43.217Z,32.07
2018-04-11T12:33:10.660Z,32.27
2018-04-11T12:35:38.108Z,26.27
2018-04-11T12:38:05.580Z,29.80
2018-04-11T12:40:33.020Z,25.93
2018-04-11T12:43:01.237Z,25.17
2018-04-11T12:45:28.688Z,27.47
2018-04-11T12:47:56.158Z,26.97
2018-04-11T12:50:23.623Z,29.13
2018-04-11T12:52:51.076Z,26.20
2018-04-11T12:55:18.537Z,30.87
2018-04-11T12:57:45.994Z,23.73
2018-04-11T13:00:13.444Z,30.47
2018-04-11T13:02:41.667Z,26.30
2018-04-11T13:05:09.124Z,26.37
2018-04-11T13:07:36.585Z,24.03
2018-04-11T13:10:04.029Z,24.47
2018-04-11T13:12:31.501Z,27.10
2018-04-11T13:14:58.968Z,24.90
2018-04-11T13:17:26.428Z,24.00
2018-04-11T13:19:53.909Z,25.27
2018-04-11T13:22:21.356Z,22.27
2018-04-11T13:24:48.811Z,21.30
2018-04-11T13:27:16.295Z,21.77
2018-04-11T13:29:43.756Z,23.50
2018-04-11T13:32:11.223Z,23.83
2018-04-11T13:34:38.665Z,25.30
2018-04-11T13:37:06.138Z,23.00
2018-04-11T13:39:33.593Z,24.07
2018-04-11T13:42:01.062Z,21.97
2018-04-11T13:44:28.516Z,24.63
2018-04-11T13:46:55.974Z,20.10
2018-04-11T13:49:23.434Z,20.53
2018-04-11T13:51:50.905Z,22.70
2018-04-11T13:54:18.366Z,21.90
2018-04-11T13:56:45.829Z,22.57
2018-04-11T13:59:13.286Z,21.53
2018-04-11T14:01:40.755Z,22.77
2018-04-11T14:04:08.245Z,24.63
2018-04-11T14:06:35.721Z,23.43
2018-04-11T14:09:03.172Z,19.37
2018-04-11T14:11:30.627Z,19.57
2018-04-11T14:13:58.088Z,21.00
2018-04-11T14:16:25.553Z,20.23
2018-04-11T14:18:52.991Z,20.27
2018-04-11T14:21:20.454Z,21.47
2018-04-11T14:23:47.916Z,18.17
2018-04-11T14:26:15.376Z,18.80
2018-04-11T14:28:42.842Z,20.27
2018-04-11T14:31:10.332Z,20.97
2018-04-11T14:33:37.768Z,18.97
2018-04-11T14:36:05.265Z,21.77
2018-04-11T14:38:32.723Z,17.73
2018-04-11T14:41:00.190Z,18.37
2018-04-11T14:43:27.632Z,18.10
2018-04-11T14:45:55.082Z,20.40
2018-04-11T14:48:22.549Z,18.00
2018-04-11T14:50:50.003Z,18.57
2018-04-11T14:53:17.458Z,20.80
2018-04-11T14:55:44.925Z,18.47
2018-04-11T14:58:13.155Z,19.70
2018-04-11T15:00:40.597Z,19.10
2018-04-11T15:03:08.040Z,18.30
2018-04-11T15:05:35.517Z,20.27
2018-04-11T15:08:02.973Z,18.57
2018-04-11T15:10:30.429Z,19.57
2018-04-11T15:12:57.887Z,19.70
2018-04-11T15:15:25.350Z,16.70
2018-04-11T15:17:52.812Z,20.80
2018-04-11T15:20:20.257Z,18.37
2018-04-11T15:22:47.716Z,17.00
2018-04-11T15:25:15.940Z,18.77
2018-04-11T15:27:43.460Z,21.80
2018-04-11T15:30:10.954Z,18.23
2018-04-11T15:32:38.426Z,18.60
2018-04-11T15:35:05.925Z,20.03
2018-04-11T15:37:34.206Z,18.93
2018-04-11T15:40:01.649Z,20.73
2018-04-11T15:42:29.110Z,20.97
2018-04-11T15:44:57.349Z,17.07
2018-04-11T15:47:24.797Z,17.63
2018-04-11T15:49:53.029Z,19.00
2018-04-11T15:52:20.482Z,23.10
2018-04-11T15:54:47.958Z,19.93
2018-04-11T15:57:15.398Z,20.60
2018-04-11T15:59:42.873Z,18.50
2018-04-11T16:02:11.393Z,19.53
2018-04-11T16:04:38.865Z,21.23
2018-04-11T16:07:07.095Z,20.27
2018-04-11T16:09:35.336Z,21.20
2018-04-11T16:12:03.553Z,18.10
2018-04-11T16:14:30.999Z,20.10
2018-04-11T16:16:58.445Z,18.07
2018-04-11T16:19:26.669Z,18.97
2018-04-11T16:21:54.141Z,18.00
2018-04-11T16:24:21.620Z,19.40
2018-04-11T16:26:49.072Z,20.87
2018-04-11T16:29:16.541Z,19.53
2018-04-11T16:31:44.010Z,18.63
2018-04-11T16:34:11.470Z,18.77
2018-04-11T16:36:38.930Z,19.13
2018-04-11T16:39:06.384Z,19.57
2018-04-11T16:41:33.852Z,20.70
2018-04-11T16:44:01.293Z,21.83
2018-04-11T16:46:28.764Z,17.80
2018-04-11T16:48:56.226Z,19.23
2018-04-11T16:51:23.682Z,20.90
2018-04-11T16:53:51.144Z,20.23
2018-04-11T16:56:18.620Z,19.50
2018-04-11T16:58:46.078Z,20.97
2018-04-11T17:01:13.551Z,20.67
2018-04-11T17:03:41.010Z,20.77
2018-04-11T17:06:08.490Z,18.17
2018-04-11T17:08:35.958Z,18.70
2018-04-11T17:11:03.440Z,17.13
2018-04-11T17:13:31.652Z,20.43
2018-04-11T17:15:59.350Z,18.33
2018-04-11T17:18:26.814Z,19.93
2018-04-11T17:21:06.243Z,19.67
2018-04-11T17:23:45.600Z,23.30
2018-04-11T17:26:24.977Z,19.43
2018-04-11T17:29:04.375Z,21.27
2018-04-11T17:31:32.614Z,22.73
2018-04-11T17:34:00.098Z,20.57
2018-04-11T17:36:28.470Z,17.57
2018-04-11T17:38:55.937Z,24.63
2018-04-11T17:41:23.403Z,18.17
2018-04-11T17:43:50.879Z,19.40
2018-04-11T17:46:18.331Z,21.23
2018-04-11T17:48:45.786Z,20.10
2018-04-11T17:51:13.231Z,18.50
2018-04-11T17:53:40.676Z,19.63
2018-04-11T17:56:08.150Z,19.40
2018-04-11T17:58:35.630Z,21.03
2018-04-11T18:01:03.095Z,18.70
2018-04-11T18:03:30.588Z,19.93
2018-04-11T18:05:58.048Z,21.90
2018-04-11T18:08:25.537Z,20.00
2018-04-11T18:10:52.953Z,19.73
2018-04-11T18:13:20.435Z,20.30
2018-04-11T18:15:47.882Z,20.73
2018-04-11T18:18:15.359Z,21.23
2018-04-11T18:20:42.818Z,22.60
2018-04-11T18:23:10.272Z,22.07
2018-04-11T18:25:37.742Z,19.47
2018-04-11T18:28:05.176Z,22.80
2018-04-11T18:30:32.651Z,21.07
2018-04-11T18:33:00.102Z,19.87
2018-04-11T18:35:27.578Z,20.50
2018-04-11T18:37:55.033Z,20.70
2018-04-11T18:40:22.474Z,22.10
2018-04-11T18:42:49.945Z,20.60
2018-04-11T18:45:17.410Z,20.60
2018-04-11T18:47:44.861Z,23.20
2018-04-11T18:50:12.299Z,18.40
2018-04-11T18:52:40.573Z,19.87
2018-04-11T18:55:08.812Z,20.10
2018-04-11T18:57:36.276Z,18.67
2018-04-11T19:00:03.751Z,22.17
2018-04-11T19:02:31.205Z,18.43
2018-04-11T19:04:58.673Z,20.73
2018-04-11T19:07:26.274Z,23.43
2018-04-11T19:09:54.427Z,21.30
2018-04-11T19:12:21.891Z,19.33
2018-04-11T19:14:49.353Z,19.43
2018-04-11T19:17:16.823Z,23.10
2018-04-11T19:19:44.282Z,18.83
2018-04-11T19:22:11.748Z,20.83
2018-04-11T19:24:39.192Z,24.77
2018-04-11T19:27:06.651Z,18.70
2018-04-11T19:29:34.101Z,22.57
2018-04-11T19:32:01.561Z,22.60
2018-04-11T19:34:29.039Z,22.70
2018-04-11T19:36:56.536Z,25.50
2018-04-11T19:39:25.507Z,20.83
2018-04-11T19:41:52.991Z,27.13
2018-04-11T19:44:20.478Z,25.60
2018-04-11T19:46:48.711Z,22.37
2018-04-11T19:49:16.178Z,24.80
2018-04-11T19:51:43.632Z,26.47
2018-04-11T19:54:11.095Z,24.57
2018-04-11T19:56:38.641Z,27.63
2018-04-11T19:59:06.125Z,23.67
2018-04-11T20:01:33.571Z,29.23
2018-04-11T20:04:01.041Z,21.30
2018-04-11T20:06:29.274Z,22.47
2018-04-11T20:08:57.498Z,24.80
2018-04-11T20:11:24.951Z,28.37
2018-04-11T20:13:52.460Z,25.00
2018-04-11T20:16:19.891Z,25.43
2018-04-11T20:18:47.347Z,26.97
2018-04-11T20:21:14.809Z,26.33
2018-04-11T20:23:42.274Z,27.20
2018-04-11T20:26:09.759Z,25.57
2018-04-11T20:28:37.233Z,33.00
2018-04-11T20:31:04.709Z,23.27
2018-04-11T20:33:32.156Z,23.63
2018-04-11T20:35:59.645Z,23.67
2018-04-11T20:38:27.707Z,23.73
2018-04-11T20:40:55.161Z,23.57
2018-04-11T20:43:22.651Z,26.87
2018-04-11T20:45:52.879Z,23.53
2018-04-11T20:48:21.486Z,24.20
2018-04-11T20:50:48.946Z,23.60
2018-04-11T20:53:16.425Z,28.47
2018-04-11T20:55:43.886Z,27.50
2018-04-11T20:58:11.378Z,24.77
2018-04-11T21:00:38.820Z,25.07
2018-04-11T21:03:06.291Z,24.30
2018-04-11T21:05:33.753Z,23.10
2018-04-11T21:08:01.232Z,26.40
2018-04-11T21:10:28.713Z,28.00
2018-04-11T21:12:56.933Z,24.60
2018-04-11T21:15:24.415Z,24.90
2018-04-11T21:17:51.921Z,27.67
2018-04-11T21:20:19.369Z,27.90
2018-04-11T21:22:46.836Z,25.20
2018-04-11T21:25:14.348Z,26.23
2018-04-11T21:27:41.851Z,25.73
2018-04-11T21:30:09.328Z,27.27
2018-04-11T21:32:36.791Z,24.97
2018-04-11T21:35:04.250Z,24.97
2018-04-11T21:37:31.736Z,29.40
2018-04-11T21:39:59.188Z,32.53
2018-04-11T21:42:27.671Z,25.43
2018-04-11T21:44:55.147Z,28.57
2018-04-11T21:47:23.381Z,27.10
2018-04-11T21:49:50.812Z,31.20
2018-04-11T21:52:18.403Z,30.13
2018-04-11T21:54:45.853Z,24.70
2018-04-11T21:57:13.309Z,25.90
2018-04-11T21:59:40.774Z,25.93
2018-04-11T22:02:08.231Z,30.07
2018-04-11T22:04:35.700Z,29.30
2018-04-11T22:07:03.172Z,27.70
2018-04-11T22:09:30.642Z,29.47
2018-04-11T22:11:58.117Z,30.43
2018-04-11T22:14:25.588Z,30.63
2018-04-11T22:16:53.041Z,27.93
2018-04-11T22:19:20.505Z,27.70
2018-04-11T22:21:47.974Z,28.90
2018-04-11T22:24:15.426Z,29.13
2018-04-11T22:26:42.899Z,26.80
2018-04-11T22:29:10.352Z,31.00
2018-04-11T22:31:38.220Z,31.50
2018-04-11T22:34:05.680Z,27.63
2018-04-11T22:36:33.140Z,28.30
2018-04-11T22:39:00.613Z,29.50
2018-04-11T22:41:28.100Z,29.30
2018-04-11T22:43:55.556Z,26.60
2018-04-11T22:46:23.009Z,30.17
2018-04-11T22:48:50.479Z,30.10
2018-04-11T22:51:17.965Z,28.90
2018-04-11T22:53:45.411Z,28.43
2018-04-11T22:56:12.880Z,32.27
2018-04-11T22:58:40.342Z,31.10
2018-04-11T23:01:07.795Z,28.73
2018-04-11T23:03:35.253Z,31.17
2018-04-11T23:06:02.735Z,30.03
2018-04-11T23:08:30.184Z,31.23
2018-04-11T23:10:57.636Z,28.47
2018-04-11T23:13:25.112Z,28.47
2018-04-11T23:15:52.582Z,31.40
2018-04-11T23:18:20.053Z,32.97
2018-04-11T23:20:47.523Z,30.97
2018-04-11T23:23:15.739Z,30.30
2018-04-11T23:25:43.191Z,29.27
2018-04-11T23:28:10.665Z,31.07
2018-04-11T23:30:38.139Z,31.20
2018-04-11T23:33:05.597Z,32.73
2018-04-11T23:35:33.035Z,30.50
2018-04-11T23:38:00.497Z,35.53
2018-04-11T23:40:28.001Z,33.07
2018-04-11T23:42:55.464Z,33.80
2018-04-11T23:45:22.918Z,31.13
2018-04-11T23:47:50.392Z,30.60
2018-04-11T23:50:17.877Z,31.40
2018-04-11T23:52:45.325Z,32.67
2018-04-11T23:55:12.773Z,33.30
2018-04-11T23:57:40.246Z,31.20
